Terminal Aerodrome Forecast
Issued by NWS Wilmington, NC

Home | Current Version | Previous Version | Text Only | Print | Product List | Glossary On
Versions: 1 2 3 4 5 6 7 8 9 10 11 12 13 14 15 16 17 18 19 20 21 22 23 24 25 26 27 28 29 30 31 32 33 34 35 36 37 38 39 40
019
FTUS42 KILM 181721
TAFMYR
TAF
KMYR 181721Z 1818/1918 27008KT P6SM BKN015
     FM182200 VRB03KT P6SM BKN025
     FM190600 00000KT 5SM BR BKN020
     FM191400 12003KT P6SM BKN015=

USA.gov is the U.S. government's official web portal to all federal, state and local government web resources and services.